createdAt,value
2022-08-17T00:00:52.118Z,100951.79
2022-08-17T00:01:52.589Z,100951.79
2022-08-17T00:02:50.405Z,100951.86
2022-08-17T00:03:50.849Z,100951.81
2022-08-17T00:04:52.315Z,100951.36
2022-08-17T00:05:52.747Z,100951.02
2022-08-17T00:06:53.398Z,100951.02
2022-08-17T00:07:54.077Z,100950.73
2022-08-17T00:08:54.857Z,100950.34
2022-08-17T00:09:54.743Z,100950.16
2022-08-17T00:10:55.353Z,100949.35
2022-08-17T00:12:43.786Z,100948.99
2022-08-17T00:12:56.579Z,100948.43
2022-08-17T00:13:56.967Z,100947.36
2022-08-17T00:14:58.717Z,100947.27
2022-08-17T00:15:58.508Z,100946.50
2022-08-17T00:16:58.584Z,100945.98
2022-08-17T00:18:00.263Z,100945.20
2022-08-17T00:19:07.533Z,100944.67
2022-08-17T00:20:00.585Z,100944.39
2022-08-17T00:21:00.954Z,100944.14
2022-08-17T00:22:34.993Z,100943.21
2022-08-17T00:23:02.020Z,100942.88
2022-08-17T00:24:03.742Z,100942.60
2022-08-17T00:25:04.141Z,100942.26
2022-08-17T00:25:13.353Z,100940.66
2022-08-17T00:26:14.273Z,100939.02
2022-08-17T00:27:14.265Z,100938.67
2022-08-17T00:28:15.912Z,100939.09
2022-08-17T00:29:19.842Z,100938.83
2022-08-17T00:30:16.351Z,100938.86
2022-08-17T00:31:18.191Z,100938.83
2022-08-17T00:33:11.876Z,100939.15
2022-08-17T00:33:18.027Z,100939.16
2022-08-17T00:34:19.270Z,100939.06
2022-08-17T00:35:19.857Z,100939.22
2022-08-17T00:36:19.838Z,100939.06
2022-08-17T00:37:20.380Z,100938.95
2022-08-17T00:38:21.417Z,100939.22
2022-08-17T00:39:23.143Z,100938.59
2022-08-17T00:40:24.570Z,100938.20
2022-08-17T00:41:23.087Z,100938.31
2022-08-17T00:42:28.840Z,100938.83
2022-08-17T00:43:24.655Z,100938.56
2022-08-17T00:44:30.223Z,100938.77
2022-08-17T00:45:25.278Z,100938.23
2022-08-17T00:46:26.231Z,100938.19
2022-08-17T00:47:26.886Z,100937.84
2022-08-17T00:48:29.970Z,100937.28
2022-08-17T00:49:28.116Z,100937.16
2022-08-17T00:50:29.346Z,100936.84
2022-08-17T00:51:29.912Z,100936.56
2022-08-17T00:52:29.426Z,100936.20
2022-08-17T00:52:42.682Z,100932.51
2022-08-17T00:53:43.301Z,100940.78
2022-08-17T00:54:44.913Z,100940.77
2022-08-17T00:55:45.637Z,100940.52
2022-08-17T00:56:46.727Z,100940.11
2022-08-17T00:57:46.437Z,100940.16
2022-08-17T00:58:47.963Z,100940.02
2022-08-17T00:59:51.096Z,100940.41
2022-08-17T01:00:47.572Z,100940.81
2022-08-17T01:01:48.299Z,100941.06
2022-08-17T01:02:49.736Z,100942.08
2022-08-17T01:03:50.595Z,100942.31
2022-08-17T01:04:51.021Z,100942.52
2022-08-17T01:05:51.833Z,100942.94
2022-08-17T01:06:50.927Z,100943.78
2022-08-17T01:07:51.202Z,100944.02
2022-08-17T01:08:57.373Z,100943.95
2022-08-17T01:09:52.247Z,100944.38
2022-08-17T01:11:00.381Z,100944.34
2022-08-17T01:11:53.151Z,100944.34
2022-08-17T01:12:54.819Z,100943.73
2022-08-17T01:13:55.540Z,100943.95
2022-08-17T10:35:21.578Z,101016.21
2022-08-17T10:36:20.646Z,101009.39
2022-08-17T10:37:22.427Z,101008.87
2022-08-17T10:38:24.774Z,101008.77
2022-08-17T10:39:22.892Z,101008.31
2022-08-17T10:40:24.734Z,101007.86
2022-08-17T10:41:24.170Z,101007.59
2022-08-17T10:42:30.528Z,101007.06
2022-08-17T10:43:24.721Z,101006.69
2022-08-17T10:44:38.798Z,101006.34
2022-08-17T10:45:25.013Z,101006.00
2022-08-17T10:46:30.958Z,101005.65
2022-08-17T10:47:26.128Z,101005.16
2022-08-17T10:48:27.617Z,101004.78
2022-08-17T10:49:28.238Z,101005.20
2022-08-17T10:50:28.805Z,101005.02
2022-08-17T10:51:29.390Z,101004.73
2022-08-17T10:52:29.890Z,101004.18
2022-08-17T10:53:30.480Z,101003.83
2022-08-17T10:54:30.212Z,101003.20
2022-08-17T10:55:31.402Z,101002.66
2022-08-17T10:56:32.133Z,101002.20
2022-08-17T10:57:32.747Z,101001.53
2022-08-17T10:57:44.963Z,100993.48
2022-08-17T10:58:45.704Z,100997.08
2022-08-17T10:59:46.196Z,100996.21
2022-08-17T11:00:47.731Z,100994.93
2022-08-17T11:01:46.701Z,100994.09
2022-08-17T11:02:48.259Z,100993.50
2022-08-17T11:03:49.104Z,100991.89
2022-08-17T11:04:49.350Z,100990.34
2022-08-17T11:05:50.248Z,100989.16
2022-08-17T11:06:49.228Z,100987.88
2022-08-17T11:07:50.149Z,100985.48
2022-08-17T11:08:51.694Z,100983.73
2022-08-17T11:09:52.230Z,100982.16
2022-08-17T11:10:53.098Z,100980.05
2022-08-17T11:11:54.021Z,100977.97
2022-08-17T11:12:53.806Z,100976.14
2022-08-17T11:13:55.422Z,100974.64
2022-08-17T11:14:54.474Z,100973.05
2022-08-17T11:15:59.020Z,100971.95
2022-08-17T11:16:54.641Z,100970.52
2022-08-17T11:17:56.461Z,100969.30
2022-08-17T11:18:57.073Z,100967.66
2022-08-17T11:19:57.368Z,100966.78
2022-08-17T11:20:58.126Z,100965.45
2022-08-17T11:21:06.830Z,100951.67
2022-08-17T11:22:07.789Z,100953.66
2022-08-17T11:23:09.398Z,100953.48
2022-08-17T11:24:10.365Z,100952.72
2022-08-17T11:25:11.057Z,100951.66
2022-08-17T11:26:11.743Z,100950.95
2022-08-17T11:27:12.597Z,100949.83
2022-08-17T11:28:12.722Z,100949.19
2022-08-17T11:29:13.272Z,100948.84
2022-08-17T11:30:12.708Z,100948.13
2022-08-17T11:31:13.472Z,100948.52
2022-08-17T11:32:13.629Z,100948.77
2022-08-17T11:33:14.404Z,100948.87
2022-08-17T11:34:14.477Z,100949.36
2022-08-17T11:35:16.405Z,100949.77
2022-08-17T11:36:15.757Z,100949.95
2022-08-17T11:37:16.587Z,100950.53
2022-08-17T11:38:18.575Z,100951.10
2022-08-17T11:39:18.906Z,100951.83
2022-08-17T11:40:19.532Z,100952.06
2022-08-17T11:41:19.287Z,100952.22
2022-08-17T11:42:20.925Z,100952.52
2022-08-17T11:43:21.701Z,100952.80
2022-08-17T11:43:33.208Z,100965.28
2022-08-17T11:44:30.513Z,100958.92
2022-08-17T11:45:33.116Z,100958.62
2022-08-17T11:46:31.546Z,100958.40
2022-08-17T11:47:32.629Z,100958.67
2022-08-17T11:48:33.352Z,100958.67
2022-08-17T11:49:32.437Z,100958.43
2022-08-17T11:50:33.847Z,100958.23
2022-08-17T11:51:34.428Z,100958.39
2022-08-17T11:52:34.468Z,100958.59
2022-08-17T11:53:34.487Z,100958.41
2022-08-17T11:54:34.943Z,100958.67
2022-08-17T11:55:36.617Z,100958.85
2022-08-17T11:56:35.122Z,100959.63
2022-08-17T11:57:36.903Z,100959.84
2022-08-17T11:58:36.988Z,100960.30
2022-08-17T11:59:37.568Z,100960.56
2022-08-17T12:00:38.362Z,100960.81
2022-08-17T12:01:38.448Z,100961.22
2022-08-17T12:02:38.481Z,100960.95
2022-08-17T12:03:38.620Z,100961.70
2022-08-17T12:03:53.826Z,100972.47
2022-08-17T12:04:49.365Z,100981.16
2022-08-17T12:05:49.787Z,100980.52
2022-08-17T12:06:51.183Z,100980.11
2022-08-17T12:07:51.489Z,100980.63
2022-08-17T12:08:51.030Z,100980.36
2022-08-17T12:09:51.298Z,100980.28
2022-08-17T12:10:52.974Z,100980.81
2022-08-17T12:11:55.508Z,100981.27
2022-08-17T12:12:52.914Z,100981.15
2022-08-17T12:13:54.484Z,100980.99
2022-08-17T12:15:11.910Z,100980.30
2022-08-17T12:15:53.889Z,100980.18
2022-08-17T12:16:54.932Z,100979.48
2022-08-17T12:17:56.226Z,100978.55
2022-08-17T12:18:55.691Z,100977.16
2022-08-17T12:19:56.359Z,100975.70
2022-08-17T12:20:57.517Z,100974.25
2022-08-17T12:21:57.755Z,100973.06
2022-08-17T12:22:58.424Z,100972.27
2022-08-17T12:23:59.134Z,100970.60
2022-08-17T12:24:59.449Z,100968.83
2022-08-17T12:25:59.875Z,100967.61
2022-08-17T12:26:08.564Z,100941.27
2022-08-17T12:27:09.176Z,100935.70
2022-08-17T12:28:10.945Z,100935.42
2022-08-17T12:29:18.161Z,100935.31
2022-08-17T12:30:10.299Z,100936.39
2022-08-17T12:31:11.875Z,100937.34
2022-08-17T12:32:11.084Z,100937.39
2022-08-17T12:33:12.228Z,100938.12
2022-08-17T12:34:11.759Z,100939.08
2022-08-17T12:35:13.685Z,100939.67
2022-08-17T12:36:13.680Z,100940.65
2022-08-17T12:37:13.701Z,100940.78
2022-08-17T12:38:32.506Z,100940.73
2022-08-17T12:39:14.863Z,100940.53
2022-08-17T12:40:13.718Z,100940.11
2022-08-17T12:41:14.415Z,100939.63
2022-08-17T12:42:14.989Z,100939.34
2022-08-17T12:43:16.661Z,100939.30
2022-08-17T12:44:17.520Z,100939.34
2022-08-17T12:45:18.424Z,100939.23
2022-08-17T12:46:19.272Z,100938.90
2022-08-17T12:47:22.633Z,100939.13
2022-08-17T12:48:19.203Z,100938.61
2022-08-17T12:48:28.719Z,100941.57
2022-08-17T12:49:29.252Z,100929.19
2022-08-17T12:50:30.815Z,100929.53
2022-08-17T12:51:31.860Z,100929.25
2022-08-17T12:52:31.260Z,100929.23
2022-08-17T12:53:32.195Z,100929.83
2022-08-17T12:54:33.103Z,100930.28
2022-08-17T12:55:34.119Z,100930.75
2022-08-17T12:56:33.324Z,100931.45
2022-08-17T12:57:34.957Z,100931.53
2022-08-17T12:58:35.142Z,100931.64
2022-08-17T12:59:36.122Z,100931.83
2022-08-17T13:00:35.979Z,100932.00
2022-08-17T13:01:36.756Z,100932.20
2022-08-17T13:02:37.033Z,100931.80
2022-08-17T13:03:37.841Z,100931.69
2022-08-17T13:04:39.123Z,100931.78
2022-08-17T13:05:39.461Z,100931.91
2022-08-17T13:06:39.453Z,100932.42
2022-08-17T13:07:40.466Z,100932.71
2022-08-17T13:08:41.030Z,100932.19
2022-08-17T13:09:41.962Z,100932.66
2022-08-17T13:09:50.696Z,100936.62
2022-08-17T13:10:52.231Z,100933.05
2022-08-17T13:11:51.991Z,100932.73
2022-08-17T13:12:53.673Z,100932.80
2022-08-17T13:13:54.482Z,100933.34
2022-08-17T13:14:54.044Z,100933.14
2022-08-17T13:15:55.339Z,100932.73
2022-08-17T13:16:56.013Z,100932.61
2022-08-17T13:17:56.720Z,100932.89
2022-08-17T13:18:57.106Z,100932.97
2022-08-17T13:19:57.752Z,100932.74
2022-08-17T13:20:58.298Z,100932.42
2022-08-17T13:21:58.795Z,100932.31
2022-08-17T13:22:59.375Z,100931.28
2022-08-17T13:24:00.013Z,100931.41
2022-08-17T13:25:00.498Z,100930.77
2022-08-17T13:26:01.173Z,100930.73
2022-08-17T13:27:01.689Z,100930.27
2022-08-17T13:28:01.239Z,100930.24
2022-08-17T13:29:02.999Z,100929.72
2022-08-17T13:29:13.184Z,100931.66
2022-08-17T13:30:13.544Z,100929.22
2022-08-17T13:31:15.036Z,100928.87
2022-08-17T13:32:15.799Z,100928.27
2022-08-17T13:33:15.069Z,100927.79
2022-08-17T13:34:15.948Z,100928.13
2022-08-17T13:35:29.606Z,100927.42
2022-08-17T13:36:20.008Z,100926.70
2022-08-17T13:37:18.440Z,100926.06
2022-08-17T13:38:18.958Z,100925.34
2022-08-17T13:39:20.795Z,100924.83
2022-08-17T13:40:21.006Z,100924.30
2022-08-17T13:41:21.367Z,100923.67
2022-08-17T13:42:22.510Z,100922.78
2022-08-17T13:43:21.647Z,100922.11
2022-08-17T13:44:23.245Z,100921.45
2022-08-17T13:45:34.763Z,100920.73
2022-08-17T13:46:22.996Z,100920.17
2022-08-17T13:47:24.574Z,100920.11
2022-08-17T13:48:24.943Z,100919.20
2022-08-17T13:49:24.757Z,100918.13
2022-08-17T13:50:25.370Z,100917.98
2022-08-17T13:51:26.941Z,100917.31
2022-08-17T13:52:27.158Z,100917.34
2022-08-17T13:53:26.394Z,100916.72
2022-08-17T13:53:35.083Z,100919.23
2022-08-17T13:54:36.436Z,100917.95
2022-08-17T13:55:36.650Z,100917.50
2022-08-17T13:56:38.373Z,100916.91
2022-08-17T13:57:36.277Z,100916.47
2022-08-17T13:58:38.280Z,100916.27
2022-08-17T13:59:54.333Z,100916.11
2022-08-17T14:00:38.060Z,100915.88
2022-08-17T14:01:39.728Z,100915.31
2022-08-17T14:02:39.227Z,100914.84
2022-08-17T14:03:40.822Z,100914.73
2022-08-17T14:04:40.244Z,100914.26
2022-08-17T14:05:41.859Z,100913.58
2022-08-17T14:06:52.828Z,100913.65
2022-08-17T14:07:42.438Z,100913.19
2022-08-17T14:08:43.742Z,100912.78
2022-08-17T14:09:43.977Z,100912.61
2022-08-17T14:10:44.311Z,100912.73
2022-08-17T14:11:45.048Z,100912.76
2022-08-17T14:12:45.016Z,100912.98
2022-08-17T14:12:53.741Z,100914.12
2022-08-17T14:13:55.628Z,100913.67
2022-08-17T14:14:56.243Z,100913.09
2022-08-17T14:15:56.845Z,100911.98
2022-08-17T14:16:56.097Z,100911.27
2022-08-17T14:17:57.969Z,100910.75
2022-08-17T14:18:58.356Z,100910.11
2022-08-17T14:19:59.310Z,100909.34
2022-08-17T14:20:59.869Z,100908.33
2022-08-17T14:22:00.431Z,100907.42
2022-08-17T14:23:00.004Z,100906.22
2022-08-17T14:24:01.475Z,100904.84
2022-08-17T14:25:02.339Z,100903.59
2022-08-17T14:26:03.174Z,100902.33
2022-08-17T14:27:03.604Z,100901.25
2022-08-17T14:28:03.258Z,100900.73
2022-08-17T14:29:04.849Z,100899.94
2022-08-17T14:30:04.580Z,100899.07
2022-08-17T14:31:06.551Z,100898.09
2022-08-17T14:32:07.213Z,100897.23
2022-08-17T14:32:15.942Z,100886.11
2022-08-17T14:33:16.672Z,100887.28
2022-08-17T14:34:18.382Z,100887.44
2022-08-17T14:35:18.870Z,100887.36
2022-08-17T14:36:18.907Z,100887.86
2022-08-17T14:37:19.506Z,100887.98
2022-08-17T14:38:19.985Z,100887.98
2022-08-17T14:39:19.879Z,100888.09
2022-08-17T14:40:21.336Z,100888.37
2022-08-17T14:41:22.232Z,100888.88
2022-08-17T14:42:21.284Z,100888.50
2022-08-17T14:43:21.786Z,100889.15
2022-08-17T14:44:23.279Z,100889.88
2022-08-17T14:45:32.002Z,100890.10
2022-08-17T14:46:23.130Z,100890.13
2022-08-17T14:47:24.737Z,100890.33
2022-08-17T14:48:24.216Z,100890.51
2022-08-17T14:49:26.111Z,100890.47
2022-08-17T14:50:26.610Z,100890.53
2022-08-17T14:51:26.088Z,100890.13
2022-08-17T14:52:27.386Z,100890.39
2022-08-17T14:53:27.800Z,100890.57
2022-08-17T14:53:36.521Z,100901.19
2022-08-17T14:54:36.672Z,100903.16
2022-08-17T14:55:38.107Z,100902.75
2022-08-17T14:56:38.735Z,100902.27
2022-08-17T14:57:39.510Z,100901.85
2022-08-17T14:58:39.864Z,100901.48
2022-08-17T14:59:39.965Z,100900.31
2022-08-17T15:00:40.989Z,100899.78
2022-08-17T15:01:40.160Z,100899.50
2022-08-17T15:02:40.990Z,100898.98
2022-08-17T15:03:42.795Z,100898.39
2022-08-17T15:04:45.631Z,100898.19
2022-08-17T15:05:43.042Z,100897.70
2022-08-17T15:06:44.622Z,100897.35
2022-08-17T15:07:45.115Z,100896.78
2022-08-17T15:08:45.867Z,100896.25
2022-08-17T15:09:46.595Z,100896.20
2022-08-17T15:10:46.145Z,100896.86
2022-08-17T15:10:57.878Z,100899.60
2022-08-17T15:11:58.924Z,100904.34
2022-08-17T15:12:59.426Z,100904.30
2022-08-17T15:13:59.925Z,100904.40
2022-08-17T15:15:00.355Z,100904.80
2022-08-17T15:16:01.198Z,100904.96
2022-08-17T15:17:01.669Z,100904.69
2022-08-17T15:18:01.968Z,100904.40
2022-08-17T15:19:01.504Z,100904.81
2022-08-17T15:20:02.791Z,100905.19
2022-08-17T15:21:02.565Z,100905.56
2022-08-17T15:22:03.806Z,100906.08
2022-08-17T15:23:04.567Z,100905.70
2022-08-17T15:24:05.225Z,100905.70
2022-08-17T15:25:04.919Z,100905.52
2022-08-17T15:26:06.654Z,100905.23
2022-08-17T15:27:06.832Z,100905.17
2022-08-17T15:28:07.737Z,100904.84
2022-08-17T15:29:07.924Z,100905.53
2022-08-17T15:30:07.577Z,100905.53
2022-08-17T15:30:16.807Z,100908.66
2022-08-17T15:31:16.879Z,100912.95
2022-08-17T15:32:18.554Z,100912.37
2022-08-17T15:33:18.827Z,100912.45
2022-08-17T15:34:19.370Z,100912.48
2022-08-17T15:35:19.797Z,100911.97
2022-08-17T15:36:19.647Z,100912.38
2022-08-17T15:37:21.460Z,100912.33
2022-08-17T15:38:22.427Z,100912.08
2022-08-17T15:39:22.966Z,100913.00
2022-08-17T15:40:22.854Z,100913.06
2022-08-17T15:41:24.561Z,100913.32
2022-08-17T15:42:25.565Z,100913.38
2022-08-17T15:43:27.950Z,100913.66
2022-08-17T15:44:32.375Z,100913.00
2022-08-17T15:45:26.178Z,100913.22
2022-08-17T15:46:27.661Z,100913.10
2022-08-17T15:47:27.667Z,100912.97
2022-08-17T15:48:27.951Z,100913.12
2022-08-17T15:49:28.669Z,100913.12
2022-08-17T15:50:28.748Z,100913.27
2022-08-17T15:50:37.477Z,100922.13
2022-08-17T15:51:39.276Z,100920.89
2022-08-17T15:52:40.179Z,100920.65
2022-08-17T15:53:40.101Z,100920.42
2022-08-17T15:54:41.564Z,100920.41
2022-08-17T15:55:41.374Z,100919.92
2022-08-17T15:56:42.964Z,100919.69
2022-08-17T15:57:43.281Z,100919.53
2022-08-17T15:58:42.842Z,100919.53
2022-08-17T15:59:44.371Z,100919.73
2022-08-17T16:00:53.220Z,100919.53
2022-08-17T16:03:14.515Z,100919.69
2022-08-17T16:03:46.148Z,100919.86
2022-08-17T16:04:04.779Z,100919.86
2022-08-17T16:04:46.748Z,100920.52
2022-08-17T16:05:47.556Z,100921.22
2022-08-17T16:06:49.254Z,100921.66
2022-08-17T16:07:49.732Z,100921.66
2022-08-17T16:08:48.583Z,100921.55
2022-08-17T16:09:50.117Z,100921.86
2022-08-17T16:10:50.713Z,100922.04
2022-08-17T16:11:51.958Z,100922.19
2022-08-17T16:12:50.898Z,100922.17
2022-08-17T16:13:55.083Z,100922.50
2022-08-17T16:14:51.527Z,100922.69
2022-08-17T16:15:57.252Z,100922.69
2022-08-17T16:16:00.737Z,100931.42
2022-08-17T16:17:01.044Z,100921.78
2022-08-17T16:18:02.782Z,100922.03
2022-08-17T16:19:03.713Z,100922.92
2022-08-17T16:20:04.660Z,100923.08
2022-08-17T16:21:03.802Z,100923.69
2022-08-17T16:22:05.019Z,100923.74
2022-08-17T16:23:05.571Z,100923.33
2022-08-17T16:24:05.575Z,100923.16
2022-08-17T16:25:04.801Z,100922.77
2022-08-17T16:26:05.976Z,100922.55
2022-08-17T16:27:11.670Z,100922.45
2022-08-17T16:28:06.173Z,100922.24
2022-08-17T16:29:07.959Z,100921.91
2022-08-17T16:30:07.109Z,100922.23
2022-08-17T16:31:09.319Z,100922.18
2022-08-17T16:32:07.917Z,100922.31
2022-08-17T16:33:09.457Z,100922.02
2022-08-17T16:34:17.177Z,100922.05
2022-08-17T16:35:09.572Z,100921.67
2022-08-17T16:36:11.279Z,100921.15
2022-08-17T16:36:23.714Z,100921.35
2022-08-17T16:37:31.449Z,100904.64
2022-08-17T16:38:24.543Z,100905.06
2022-08-17T16:39:25.677Z,100905.39
2022-08-17T16:40:24.900Z,100906.09
2022-08-17T16:41:25.356Z,100906.52
2022-08-17T16:42:26.940Z,100907.05
2022-08-17T16:43:27.432Z,100907.23
2022-08-17T16:44:27.976Z,100908.43
2022-08-17T16:45:28.409Z,100909.13
2022-08-17T16:46:29.277Z,100909.84
2022-08-17T16:47:29.904Z,100910.13
2022-08-17T16:48:30.655Z,100910.71
2022-08-17T16:49:36.713Z,100910.78
2022-08-17T16:50:30.913Z,100911.22
2022-08-17T16:51:31.761Z,100911.42
2022-08-17T16:52:32.391Z,100911.37
2022-08-17T16:53:32.567Z,100911.55
2022-08-17T16:54:34.474Z,100911.52
2022-08-17T16:55:33.746Z,100911.69
2022-08-17T16:56:35.296Z,100912.00
2022-08-17T16:57:34.736Z,100911.99
2022-08-17T16:57:47.224Z,100916.37
2022-08-17T16:58:44.472Z,100911.14
2022-08-17T16:59:48.101Z,100911.45
2022-08-17T17:00:45.662Z,100911.73
2022-08-17T17:01:46.535Z,100912.19
2022-08-17T17:02:47.752Z,100912.88
2022-08-17T17:03:48.401Z,100913.64
2022-08-17T17:04:50.102Z,100914.23
2022-08-17T17:05:55.108Z,100914.80
2022-08-17T17:06:49.229Z,100916.27
2022-08-17T17:07:50.281Z,100917.42
2022-08-17T17:08:50.323Z,100918.13
2022-08-17T17:09:50.623Z,100920.14
2022-08-17T17:10:50.820Z,100921.58
2022-08-17T17:11:54.226Z,100922.97
2022-08-17T17:13:01.467Z,100924.42
2022-08-17T17:13:52.230Z,100925.19
2022-08-17T17:14:21.289Z,100943.02
2022-08-17T17:15:22.222Z,100946.50
2022-08-17T17:16:22.064Z,100946.39
2022-08-17T17:17:23.829Z,100946.09
2022-08-17T17:18:23.143Z,100946.33
2022-08-17T17:19:34.326Z,100946.22
2022-08-17T17:20:24.173Z,100946.39
2022-08-17T17:21:25.058Z,100946.33
2022-08-17T17:22:25.131Z,100946.38
2022-08-17T17:23:26.710Z,100946.08
2022-08-17T17:24:29.929Z,100946.16
2022-08-17T17:25:27.495Z,100946.63
2022-08-17T17:26:28.967Z,100947.12
2022-08-17T17:27:29.428Z,100947.42
2022-08-17T17:28:28.565Z,100947.27
2022-08-17T17:29:47.306Z,100947.16
2022-08-17T17:30:29.355Z,100947.73
2022-08-17T17:31:30.096Z,100948.24
2022-08-17T17:32:30.438Z,100948.70
2022-08-17T17:32:49.384Z,100951.64
2022-08-17T17:33:49.669Z,100957.53
2022-08-17T17:34:51.168Z,100956.84
2022-08-17T17:35:51.340Z,100956.91
2022-08-17T17:36:52.029Z,100957.30
2022-08-17T17:37:53.198Z,100956.78
2022-08-17T17:38:52.999Z,100956.89
2022-08-17T17:39:53.221Z,100957.53
2022-08-17T17:41:02.333Z,100957.98
2022-08-17T17:41:53.922Z,100958.24
2022-08-17T17:42:53.918Z,100958.39
2022-08-17T17:43:54.063Z,100958.62
2022-08-17T17:44:54.986Z,100958.73
2022-08-17T17:45:58.210Z,100958.77
2022-08-17T17:46:56.283Z,100959.17
2022-08-17T17:47:57.077Z,100958.84
2022-08-17T17:48:57.866Z,100959.37
2022-08-17T17:49:58.319Z,100959.53
2022-08-17T17:50:59.205Z,100959.58
2022-08-17T17:52:10.834Z,100959.52
2022-08-17T17:52:59.958Z,100959.47
2022-08-17T17:54:00.939Z,100959.27
2022-08-17T17:55:01.886Z,100959.56
2022-08-17T17:55:13.850Z,100955.95
2022-08-17T17:56:44.072Z,100960.67
2022-08-17T17:57:15.319Z,100960.39
2022-08-17T17:58:17.809Z,100960.45
2022-08-17T17:59:16.560Z,100960.11
2022-08-17T18:00:18.336Z,100959.41
2022-08-17T18:01:20.443Z,100958.90
2022-08-17T18:02:20.667Z,100958.94
2022-08-17T18:03:18.628Z,100959.47
2022-08-17T18:04:21.283Z,100959.52
2022-08-17T18:05:19.116Z,100959.31
2022-08-17T18:06:22.653Z,100959.61
2022-08-17T18:07:20.067Z,100959.59
2022-08-17T18:08:20.265Z,100959.88
2022-08-17T18:09:21.016Z,100959.92
2022-08-17T18:10:29.656Z,100959.73
2022-08-17T18:11:24.959Z,100958.98
2022-08-17T18:12:22.321Z,100959.31
2022-08-17T18:13:22.943Z,100958.77
2022-08-17T18:14:23.492Z,100958.89
2022-08-17T18:15:24.671Z,100958.70
2022-08-17T18:15:35.756Z,100962.56
2022-08-17T18:16:36.048Z,100964.89
2022-08-17T18:17:36.213Z,100964.41
2022-08-17T18:18:36.966Z,100964.30
2022-08-17T18:19:37.946Z,100964.69
2022-08-17T18:20:53.441Z,100965.07
2022-08-17T18:21:39.615Z,100965.08
2022-08-17T18:22:39.950Z,100965.91
2022-08-17T18:23:40.595Z,100966.61
2022-08-17T18:24:48.105Z,100967.52
2022-08-17T18:25:41.644Z,100968.42
2022-08-17T18:26:44.993Z,100968.61
2022-08-17T18:27:43.480Z,100968.48
2022-08-17T18:28:44.397Z,100969.31
2022-08-17T18:29:45.339Z,100969.81
2022-08-17T18:30:46.142Z,100969.84
2022-08-17T18:31:55.398Z,100969.96
2022-08-17T18:32:47.208Z,100970.48
2022-08-17T18:33:47.473Z,100970.91
2022-08-17T18:34:48.717Z,100970.84
2022-08-17T18:35:48.256Z,100971.27
2022-08-17T18:36:49.208Z,100972.09
2022-08-17T18:37:50.199Z,100972.86
2022-08-17T18:38:50.216Z,100974.42
2022-08-17T18:39:50.452Z,100975.77
2022-08-17T18:40:50.826Z,100977.09
2022-08-17T18:41:51.252Z,100978.53
2022-08-17T18:42:11.355Z,100998.51
2022-08-17T18:43:11.578Z,100995.74
2022-08-17T18:44:12.299Z,100995.84
2022-08-17T18:45:12.660Z,100996.50
2022-08-17T18:46:13.708Z,100996.80
2022-08-17T18:47:16.494Z,100997.45
2022-08-17T18:48:14.427Z,100998.17
2022-08-17T18:49:14.491Z,100999.83
2022-08-17T18:50:14.948Z,101000.89
2022-08-17T18:51:15.279Z,101001.57
2022-08-17T18:52:15.860Z,101002.98
2022-08-17T18:53:17.498Z,101003.84
2022-08-17T18:54:17.213Z,101004.59
2022-08-17T18:55:17.634Z,101006.14
2022-08-17T18:56:18.227Z,101007.09
2022-08-17T18:57:18.389Z,101008.06
2022-08-17T18:58:18.620Z,101009.20
2022-08-17T18:59:20.494Z,101010.33
2022-08-17T19:00:20.417Z,101010.91
2022-08-17T19:01:47.250Z,101012.05
2022-08-17T19:02:36.031Z,101012.18
2022-08-17T19:02:46.020Z,101030.30
2022-08-17T19:03:38.960Z,101021.52
2022-08-17T19:04:40.233Z,101021.50
2022-08-17T19:05:39.913Z,101022.12
2022-08-17T19:06:40.652Z,101022.60
2022-08-17T19:07:41.549Z,101022.91
2022-08-17T19:08:44.202Z,101023.35
2022-08-17T19:09:45.180Z,101024.31
2022-08-17T19:10:46.216Z,101024.38
2022-08-17T19:11:42.459Z,101025.27
2022-08-17T19:12:42.620Z,101026.35
2022-08-17T19:13:43.483Z,101027.17
2022-08-17T19:14:44.196Z,101027.89
2022-08-17T19:15:44.784Z,101029.11
2022-08-17T19:16:45.576Z,101030.55
2022-08-17T19:16:56.908Z,101050.74
2022-08-17T19:17:56.973Z,101057.73
2022-08-17T19:19:26.559Z,101057.59
2022-08-17T19:19:57.186Z,101057.48
2022-08-17T19:20:58.586Z,101057.74
2022-08-17T19:21:57.853Z,101058.50
2022-08-17T19:23:01.132Z,101058.80
2022-08-17T19:23:59.305Z,101059.85
2022-08-17T19:25:02.747Z,101060.59
2022-08-17T19:26:01.192Z,101061.06
2022-08-17T19:27:01.682Z,101062.16
2022-08-17T19:28:03.133Z,101063.55
2022-08-17T19:29:02.178Z,101063.73
2022-08-17T19:30:07.928Z,101065.41
2022-08-17T19:31:09.496Z,101066.32
2022-08-17T19:32:06.550Z,101067.89
2022-08-17T19:33:07.901Z,101068.77
2022-08-17T19:34:29.885Z,101069.30
2022-08-17T19:35:06.165Z,101070.52
2022-08-17T19:36:08.691Z,101071.73
2022-08-17T19:37:09.504Z,101072.33
2022-08-17T19:38:23.169Z,101088.75
2022-08-17T19:39:20.354Z,101083.53
2022-08-17T19:40:48.985Z,101083.66
2022-08-17T19:41:23.812Z,101083.94
2022-08-17T19:42:21.463Z,101084.72
2022-08-17T19:43:21.608Z,101084.99
2022-08-17T19:44:22.544Z,101085.67
2022-08-17T19:45:23.130Z,101086.42
2022-08-17T19:46:23.293Z,101086.97
2022-08-17T19:47:53.232Z,101088.00
2022-08-17T19:48:30.983Z,101089.48
2022-08-17T19:49:32.811Z,101090.65
2022-08-17T19:50:24.502Z,101092.02
2022-08-17T19:51:27.945Z,101093.23
2022-08-17T19:52:28.697Z,101094.78
2022-08-17T19:53:36.854Z,101095.92
2022-08-17T19:54:03.906Z,101112.56
2022-08-17T19:54:42.163Z,101113.17
2022-08-17T19:55:42.717Z,101112.93
2022-08-17T19:56:43.045Z,101113.06
2022-08-17T19:57:44.057Z,101112.64
2022-08-17T19:58:44.875Z,101112.92
2022-08-17T19:59:47.728Z,101113.19
2022-08-17T20:00:45.812Z,101113.96
2022-08-17T20:01:45.999Z,101114.19
2022-08-17T20:02:46.741Z,101114.55
2022-08-17T20:03:46.775Z,101114.63
2022-08-17T20:04:47.070Z,101114.80
2022-08-17T20:06:09.244Z,101114.87
2022-08-17T20:06:48.282Z,101115.60
2022-08-17T20:07:48.803Z,101116.55
2022-08-17T20:08:48.865Z,101117.21
2022-08-17T20:09:49.453Z,101118.44
2022-08-17T20:10:54.509Z,101119.69
2022-08-17T20:11:50.208Z,101119.98
2022-08-17T20:12:50.602Z,101120.65
2022-08-17T20:13:51.515Z,101121.63
2022-08-17T20:14:55.902Z,101122.05
2022-08-17T20:15:52.701Z,101122.89
2022-08-17T20:17:03.090Z,101123.50
2022-08-17T20:18:03.053Z,101146.63
2022-08-17T20:19:04.358Z,101135.09
2022-08-17T20:20:04.092Z,101134.80
2022-08-17T20:21:04.696Z,101134.83
2022-08-17T20:22:05.433Z,101134.45
2022-08-17T20:23:06.445Z,101133.93
2022-08-17T20:24:07.204Z,101133.52
2022-08-17T20:25:10.449Z,101133.50
2022-08-17T20:26:08.710Z,101133.32
2022-08-17T20:27:11.866Z,101133.52
2022-08-17T20:28:09.766Z,101133.27
2022-08-17T20:29:10.312Z,101133.77